Colcord, West Virginia
Current Conditions -  °F | °C
As of 2:06 PM on Friday 31 Oct 2014 (Local Time) from KBKW Reporting Station
Overcast Overcast  
Wind Chill: 45°   Ceiling: 4300
Heat Index: 45°   Visibility: 10mi
Dew Point: 33°   Wind: 3mph
Humidity: 63%   Direction: NA
Pressure: 29.85"   Gusts: NA
Location:  37.95°N, 81.44°W
Report Text: KBKW 311806Z AUTO VRB03KT 10SM SCT025 OVC043 07/01 A2985 RMK AO2 T00720006 TSNO
Loading
Personal Weather Stations






























Interactive Weather Map New forecast layout! Learn more

10-Day Weather Forecast

Advertisements
Track Severe Weather on mobile